createdAt,value
2022-08-20T00:09:36.497Z,8.43
2022-08-20T00:19:58.536Z,8.25
2022-08-20T00:30:20.846Z,8.57
2022-08-20T00:40:52.895Z,9.20
2022-08-20T00:51:36.201Z,8.20
2022-08-20T01:01:58.257Z,7.97
2022-08-20T01:12:20.299Z,8.38
2022-08-20T01:23:30.108Z,7.85
2022-08-20T01:33:54.585Z,8.40
2022-08-20T01:44:18.526Z,8.30
2022-08-20T01:54:41.044Z,9.15
2022-08-20T02:05:02.704Z,8.10
2022-08-20T02:15:34.559Z,9.85
2022-08-20T02:25:59.264Z,10.00
2022-08-20T02:36:21.001Z,10.05
2022-08-20T02:46:42.619Z,11.52
2022-08-20T02:57:04.667Z,11.88
2022-08-20T03:07:26.223Z,13.18
2022-08-20T03:17:48.471Z,13.48
2022-08-20T03:28:10.741Z,13.13
2022-08-20T03:38:33.528Z,15.27
2022-08-20T03:48:59.936Z,15.80
2022-08-20T03:59:22.100Z,16.08
2022-08-20T04:09:46.435Z,16.98
2022-08-20T04:20:10.839Z,15.93
2022-08-20T04:30:33.419Z,14.50
2022-08-20T04:41:01.130Z,14.27
2022-08-20T04:51:22.917Z,15.57
2022-08-20T05:01:45.561Z,14.27
2022-08-20T05:12:07.453Z,14.10
2022-08-20T05:22:31.049Z,11.68
2022-08-20T05:32:52.684Z,10.63
2022-08-20T05:43:14.820Z,8.48
2022-08-20T05:53:37.626Z,5.95
2022-08-20T06:04:18.223Z,4.90
2022-08-20T06:14:39.848Z,4.55
2022-08-20T06:25:03.214Z,4.70
2022-08-20T06:35:25.198Z,4.05
2022-08-20T06:45:46.743Z,2.85
2022-08-20T06:56:08.365Z,3.33
2022-08-20T07:06:29.931Z,2.22
2022-08-20T07:16:51.499Z,3.00
2022-08-20T07:27:13.166Z,2.10
2022-08-20T07:37:40.848Z,2.10
2022-08-20T07:48:11.841Z,1.90
2022-08-20T07:58:36.635Z,1.77
2022-08-20T08:09:06.370Z,1.63
2022-08-20T08:19:33.791Z,1.30
2022-08-20T08:29:55.483Z,0.98
2022-08-20T08:40:17.385Z,1.20
2022-08-20T08:50:53.106Z,1.50
2022-08-20T09:01:54.281Z,0.95
2022-08-20T09:12:09.594Z,1.10
2022-08-20T09:22:33.357Z,1.10
2022-08-20T09:32:54.892Z,0.98
2022-08-20T09:43:16.484Z,0.93
2022-08-20T09:53:38.019Z,1.10
2022-08-20T10:03:59.616Z,1.02
2022-08-20T10:14:21.141Z,1.00
2022-08-20T10:24:43.055Z,0.98
2022-08-20T10:35:05.110Z,0.90
2022-08-20T10:45:26.741Z,0.95
2022-08-20T10:55:48.277Z,1.10
2022-08-20T11:06:09.843Z,0.95
2022-08-20T11:16:31.504Z,0.90
2022-08-20T11:26:53.448Z,0.70
2022-08-20T11:37:16.543Z,0.85
2022-08-20T11:47:38.502Z,1.02
2022-08-20T11:58:00.942Z,1.00
2022-08-20T12:08:27.058Z,0.82
2022-08-20T12:18:49.646Z,1.08
2022-08-20T12:29:11.174Z,0.90
2022-08-20T12:39:34.623Z,0.80
2022-08-20T12:50:01.179Z,0.85
2022-08-20T13:00:34.493Z,0.95
2022-08-20T13:10:56.047Z,1.10
2022-08-20T13:21:20.082Z,0.75
2022-08-20T13:31:45.533Z,0.90
2022-08-20T13:42:07.285Z,0.90
2022-08-20T13:52:28.872Z,0.80
2022-08-20T14:02:50.491Z,0.95
2022-08-20T14:13:15.316Z,0.90
2022-08-20T14:23:37.181Z,1.00
2022-08-20T14:33:58.694Z,0.85
2022-08-20T14:44:20.247Z,1.00
2022-08-20T14:54:42.564Z,0.80
2022-08-20T15:05:07.015Z,0.80
2022-08-20T15:15:28.900Z,0.90
2022-08-20T15:25:50.413Z,0.80
2022-08-20T15:36:12.151Z,0.85
2022-08-20T15:46:36.249Z,0.90
2022-08-20T15:57:07.334Z,0.80
2022-08-20T16:07:37.083Z,1.10
2022-08-20T16:18:03.203Z,0.93
2022-08-20T16:28:32.644Z,0.75
2022-08-20T16:39:03.408Z,1.00
2022-08-20T16:49:28.462Z,1.40
2022-08-20T17:00:14.921Z,0.90
2022-08-20T17:10:58.427Z,1.10
2022-08-20T17:21:26.967Z,1.20
2022-08-20T17:31:54.587Z,1.02
2022-08-20T17:42:26.125Z,1.20
2022-08-20T17:52:58.816Z,1.20
2022-08-20T18:03:24.829Z,1.40
2022-08-20T18:14:04.724Z,1.23
2022-08-20T18:35:34.281Z,1.17
2022-08-20T18:45:55.926Z,1.33
2022-08-20T18:56:17.689Z,1.60
2022-08-20T19:06:47.751Z,1.20
2022-08-20T19:17:43.864Z,1.58
2022-08-20T19:28:23.602Z,1.40
2022-08-20T19:38:50.116Z,1.40
2022-08-20T19:49:43.115Z,1.30
2022-08-20T20:00:11.238Z,1.27
2022-08-20T20:10:35.691Z,1.95
2022-08-20T20:21:11.595Z,1.70
2022-08-20T20:31:42.559Z,1.60
2022-08-20T20:42:07.138Z,1.58
2022-08-20T20:52:35.648Z,1.65
2022-08-20T21:02:57.389Z,1.63
2022-08-20T21:13:21.784Z,1.52
2022-08-20T21:23:43.357Z,4.90
2022-08-20T21:34:04.868Z,4.28
2022-08-20T21:44:29.751Z,3.05
2022-08-20T21:54:52.372Z,2.20
2022-08-20T22:05:15.099Z,3.05
2022-08-20T22:15:36.654Z,3.05
2022-08-20T22:25:58.199Z,3.30
2022-08-20T22:36:19.742Z,2.28
2022-08-20T22:46:47.384Z,2.00
2022-08-20T22:57:10.415Z,2.13
2022-08-20T23:07:34.085Z,2.40
2022-08-20T23:18:01.870Z,2.28
2022-08-20T23:28:25.106Z,2.13
2022-08-20T23:38:46.983Z,2.10
2022-08-20T23:49:08.553Z,2.15
2022-08-20T23:59:30.156Z,2.30
